Time;durP1;ratioP1;P1;durP2;ratioP2;P2;SDS_P1;SDS_P2;PMS_P1;PMS_P2;Temp;Humidity;BMP_temperature;BMP_pressure;BME280_temperature;BME280_humidity;BME280_pressure;Samples;Min_cycle;Max_cycle;Signal;HPM_P1;HPM_P2
2022/08/08 00:00:28;;;;;;;9.15;8.23;;;;;;;26.86;53.76;101103.16;5076187;28;20423;-62
2022/08/08 00:03:18;;;;;;;9.48;8.00;;;;;;;26.86;53.74;101102.38;5066757;28;20395;-61
2022/08/08 00:05:55;;;;;;;9.40;8.23;;;;;;;26.80;54.29;101101.53;5067082;28;20399;-61
2022/08/08 00:08:35;;;;;;;9.93;8.38;;;;;;;26.83;54.38;101111.06;5066763;28;20403;-61
2022/08/08 00:11:13;;;;;;;10.60;8.40;;;;;;;26.80;54.16;101106.97;5066382;28;20419;-61
2022/08/08 00:13:51;;;;;;;8.95;8.15;;;;;;;26.81;53.83;101105.06;5066405;28;20384;-61
2022/08/08 00:17:16;;;;;;;9.82;8.27;;;;;;;26.78;54.09;101103.72;5106689;27;20457;-61
2022/08/08 00:19:49;;;;;;;9.48;8.52;;;;;;;26.74;53.79;101097.19;5107301;28;20388;-62
2022/08/08 00:22:23;;;;;;;8.97;8.07;;;;;;;26.76;54.17;101102.34;5107507;28;20377;-62
2022/08/08 00:24:55;;;;;;;8.88;8.05;;;;;;;26.75;54.34;101103.44;5107201;28;20459;-61
2022/08/08 00:27:21;;;;;;;9.23;8.25;;;;;;;26.75;54.37;101112.41;5107154;28;20824;-62
2022/08/08 00:29:58;;;;;;;9.60;7.97;;;;;;;26.70;54.04;101110.50;5107216;28;20771;-61
2022/08/08 00:32:49;;;;;;;9.07;8.23;;;;;;;26.66;54.15;101106.66;5107256;28;20412;-63
2022/08/08 00:35:48;;;;;;;9.70;8.32;;;;;;;26.62;53.62;101105.59;5107018;28;20424;-62
2022/08/08 00:38:22;;;;;;;9.02;7.97;;;;;;;26.61;53.49;101106.66;5106949;28;20771;-62
2022/08/08 00:41:22;;;;;;;10.85;8.50;;;;;;;26.57;53.96;101107.44;5106348;28;20477;-62
2022/08/08 00:43:50;;;;;;;9.27;8.15;;;;;;;26.54;54.04;101108.78;5105843;28;20438;-61
2022/08/08 00:46:28;;;;;;;10.20;8.13;;;;;;;26.52;53.80;101109.06;5107083;28;20920;-60
2022/08/08 00:49:13;;;;;;;9.00;8.10;;;;;;;26.50;53.76;101118.56;5107000;28;20368;-60
2022/08/08 00:54:00;;;;;;;9.30;8.32;;;;;;;26.43;53.67;101118.00;5106666;27;20400;-62
2022/08/08 00:57:03;;;;;;;9.20;8.30;;;;;;;26.38;54.17;101116.09;5107875;28;20893;-63
2022/08/08 00:59:43;;;;;;;9.25;8.25;;;;;;;26.35;53.88;101119.34;5107217;28;20388;-63
2022/08/08 01:02:23;;;;;;;9.38;8.25;;;;;;;26.31;53.89;101123.69;5107421;28;20441;-62
2022/08/08 01:05:19;;;;;;;8.77;7.97;;;;;;;26.33;53.86;101132.38;5107113;28;20400;-62
2022/08/08 01:07:51;;;;;;;8.55;7.75;;;;;;;26.30;53.74;101130.19;5107416;28;21464;-62
2022/08/08 01:10:54;;;;;;;9.23;8.20;;;;;;;26.30;53.88;101122.84;5107035;28;20813;-62
2022/08/08 01:13:53;;;;;;;9.23;8.27;;;;;;;26.23;53.88;101135.84;5107118;28;20499;-62
2022/08/08 01:16:56;;;;;;;8.73;7.93;;;;;;;26.21;53.68;101129.06;5107191;28;20471;-62
2022/08/08 01:19:38;;;;;;;11.40;8.38;;;;;;;26.25;53.68;101136.44;5107068;28;20412;-62
2022/08/08 01:22:06;;;;;;;9.23;8.32;;;;;;;26.25;53.49;101130.16;5106767;28;20414;-62
2022/08/08 01:24:41;;;;;;;9.13;7.97;;;;;;;26.26;53.86;101131.81;5107100;28;20380;-62
2022/08/08 01:27:25;;;;;;;9.60;8.60;;;;;;;26.18;53.90;101130.41;5107040;28;20373;-61
2022/08/08 01:30:08;;;;;;;10.13;8.25;;;;;;;26.20;54.10;101135.56;5106612;28;20376;-62
2022/08/08 01:33:05;;;;;;;10.15;8.40;;;;;;;26.18;54.06;101137.72;5106524;28;20413;-61
2022/08/08 01:35:58;;;;;;;9.20;8.40;;;;;;;26.18;54.00;101135.00;5106516;28;20389;-62
2022/08/08 01:38:53;;;;;;;10.07;8.73;;;;;;;26.15;54.40;101136.38;5106864;28;20516;-62
2022/08/08 01:41:44;;;;;;;11.23;8.90;;;;;;;26.12;54.34;101132.25;5106183;28;20471;-62
2022/08/08 01:44:15;;;;;;;10.47;8.87;;;;;;;26.15;54.22;101139.09;5105852;28;20387;-62
2022/08/08 01:46:56;;;;;;;12.02;8.60;;;;;;;26.14;54.15;101140.16;5105725;28;20376;-62
2022/08/08 01:49:30;;;;;;;9.35;8.38;;;;;;;26.08;54.64;101133.06;5106191;28;20372;-62
2022/08/08 01:52:13;;;;;;;8.75;7.95;;;;;;;26.09;54.40;101143.69;5106481;28;20452;-61
2022/08/08 01:54:44;;;;;;;10.07;8.15;;;;;;;26.08;54.33;101133.88;5106566;28;20383;-61
2022/08/08 01:57:19;;;;;;;8.82;8.02;;;;;;;26.13;54.26;101136.63;5106471;28;20365;-62
2022/08/08 02:00:06;;;;;;;9.13;8.32;;;;;;;26.10;54.41;101130.91;5106447;28;20385;-61
2022/08/08 02:03:03;;;;;;;8.93;8.02;;;;;;;26.15;54.56;101144.53;5106213;28;20377;-62
2022/08/08 02:05:49;;;;;;;9.18;8.27;;;;;;;26.15;54.53;101143.72;5075272;28;20393;-62
2022/08/08 02:08:38;;;;;;;9.77;8.38;;;;;;;26.13;54.50;101141.25;5091376;28;20420;-62
2022/08/08 02:11:33;;;;;;;9.40;8.37;;;;;;;26.13;54.35;101144.78;5092565;28;20988;-62
2022/08/08 02:14:04;;;;;;;9.40;8.50;;;;;;;26.15;54.73;101147.25;5090311;28;20409;-62
2022/08/08 02:16:56;;;;;;;8.40;7.60;;;;;;;26.16;54.92;101148.84;5092203;28;20759;-62
2022/08/08 02:19:30;;;;;;;9.05;8.25;;;;;;;26.13;55.04;101152.13;5092137;28;20377;-59
2022/08/08 02:22:32;;;;;;;10.18;8.25;;;;;;;26.10;55.21;101152.66;5092098;28;20378;-62
2022/08/08 02:25:19;;;;;;;9.20;8.38;;;;;;;26.13;55.26;101154.84;5092012;28;20382;-61
2022/08/08 02:27:53;;;;;;;12.25;8.73;;;;;;;26.14;55.33;101148.31;5091961;28;20525;-59
2022/08/08 02:30:30;;;;;;;9.10;8.15;;;;;;;26.13;55.08;101158.38;5092196;28;20377;-61
2022/08/08 02:32:55;;;;;;;9.70;8.10;;;;;;;26.09;55.07;101151.84;5092326;28;20409;-60
2022/08/08 02:35:46;;;;;;;9.37;8.37;;;;;;;26.06;54.97;101152.34;5091949;28;20373;-60
2022/08/08 02:38:34;;;;;;;9.40;8.25;;;;;;;26.07;55.10;101155.88;5091797;28;20759;-61
2022/08/08 02:41:18;;;;;;;9.65;8.75;;;;;;;26.01;54.74;101149.59;5091954;28;20938;-60
2022/08/08 02:44:19;;;;;;;9.50;8.60;;;;;;;25.93;54.35;101150.91;5091991;28;20749;-60
2022/08/08 02:47:22;;;;;;;9.30;8.32;;;;;;;25.93;54.50;101152.81;5091964;28;20392;-61
2022/08/08 02:49:48;;;;;;;9.32;8.35;;;;;;;25.91;54.50;101157.66;5091594;28;20389;-61
2022/08/08 02:52:55;;;;;;;9.03;8.13;;;;;;;25.91;54.39;101153.06;5091497;28;20420;-61
2022/08/08 02:57:27;;;;;;;10.20;8.52;;;;;;;25.92;54.28;101160.09;5106633;27;20926;-61
2022/08/08 03:00:14;;;;;;;10.68;8.48;;;;;;;25.85;54.32;101164.94;5107620;28;20898;-62
2022/08/08 03:02:58;;;;;;;13.38;9.30;;;;;;;25.87;54.50;101159.25;5106425;28;20411;-61
2022/08/08 03:05:29;;;;;;;9.98;8.77;;;;;;;25.88;54.26;101159.00;5107556;28;20376;-61
2022/08/08 03:08:13;;;;;;;10.10;9.10;;;;;;;25.88;54.38;101169.06;5107489;28;20391;-61
2022/08/08 03:11:06;;;;;;;11.55;9.32;;;;;;;25.91;54.49;101163.09;5107597;28;20385;-61
2022/08/08 03:13:45;;;;;;;10.90;9.45;;;;;;;25.89;54.57;101174.22;5107370;28;20380;-61
2022/08/08 03:16:10;;;;;;;11.07;8.98;;;;;;;25.90;54.42;101175.84;5107240;28;20514;-61
2022/08/08 03:19:16;;;;;;;12.67;9.47;;;;;;;25.93;54.38;101171.84;5107354;28;20867;-61
2022/08/08 03:21:42;;;;;;;11.02;9.60;;;;;;;25.97;54.28;101183.00;5107130;28;20381;-61
2022/08/08 03:24:07;;;;;;;13.00;9.90;;;;;;;25.93;54.22;101178.09;5089525;28;20399;-61
2022/08/08 03:26:38;;;;;;;12.30;9.97;;;;;;;25.93;54.26;101177.28;5081954;28;20439;-61
2022/08/08 03:29:08;;;;;;;12.57;9.55;;;;;;;25.93;54.34;101186.22;5079813;28;20761;-61
2022/08/08 03:34:17;;;;;;;13.80;9.48;;;;;;;26.00;54.16;101185.16;5080878;28;20471;-61
2022/08/08 03:36:43;;;;;;;11.73;10.17;;;;;;;25.99;53.87;101183.56;5082089;28;20436;-61
2022/08/08 03:39:13;;;;;;;14.80;10.50;;;;;;;26.01;53.94;101189.53;5081183;28;20752;-61
2022/08/08 03:41:39;;;;;;;11.80;10.05;;;;;;;26.01;53.99;101190.34;5082828;28;20496;-61
2022/08/08 03:44:05;;;;;;;13.20;10.10;;;;;;;26.09;53.63;101198.03;5081510;28;20386;-61
2022/08/08 03:46:41;;;;;;;12.50;10.15;;;;;;;26.05;53.75;101194.16;5082251;28;20382;-61
2022/08/08 03:49:16;;;;;;;12.52;10.10;;;;;;;26.02;53.87;101196.59;5081157;28;20389;-61
2022/08/08 03:51:42;;;;;;;12.00;10.45;;;;;;;26.01;53.94;101205.84;5081649;28;20764;-61
2022/08/08 03:54:08;;;;;;;11.60;10.40;;;;;;;26.06;53.50;101198.53;5079562;28;20878;-60
2022/08/08 03:56:34;;;;;;;12.15;10.88;;;;;;;26.07;53.47;101199.34;5081838;28;20414;-63
2022/08/08 03:58:59;;;;;;;12.50;11.17;;;;;;;26.12;53.67;101197.47;5081001;28;20403;-61
2022/08/08 04:01:34;;;;;;;17.37;11.77;;;;;;;26.16;53.61;101202.38;5081718;28;20426;-61
2022/08/08 04:04:00;;;;;;;12.30;11.10;;;;;;;26.15;53.17;101207.00;5080123;28;20472;-61
2022/08/08 04:06:26;;;;;;;14.50;11.50;;;;;;;26.08;53.36;101209.97;5080240;28;20419;-61
2022/08/08 04:09:15;;;;;;;14.93;11.15;;;;;;;26.16;53.20;101205.09;5074506;27;2059547;-61
2022/08/08 04:11:42;;;;;;;12.73;11.43;;;;;;;26.11;53.34;101212.16;5135408;27;20400;-61
2022/08/08 04:14:08;;;;;;;14.68;11.50;;;;;;;26.20;52.98;101212.50;5135733;27;20385;-61
2022/08/08 04:16:33;;;;;;;12.80;11.47;;;;;;;26.22;52.98;101217.66;5135732;27;20418;-62
2022/08/08 04:18:59;;;;;;;12.80;11.40;;;;;;;26.18;52.88;101217.38;5137657;27;20464;-61
2022/08/08 04:21:24;;;;;;;13.37;11.97;;;;;;;26.16;52.86;101207.81;5139273;27;20384;-62
2022/08/08 04:23:50;;;;;;;14.02;11.32;;;;;;;26.19;53.06;101210.84;5138928;27;20795;-62
2022/08/08 04:26:15;;;;;;;12.77;11.47;;;;;;;26.27;52.58;101209.50;5135659;27;20923;-61
2022/08/08 04:28:41;;;;;;;13.30;11.60;;;;;;;26.29;52.66;101210.91;5135176;27;20412;-61
2022/08/08 04:31:07;;;;;;;12.85;11.52;;;;;;;26.32;52.44;101215.78;5127068;28;20945;-61
2022/08/08 04:33:32;;;;;;;15.37;11.90;;;;;;;26.41;52.11;101210.69;5127404;28;20849;-61
2022/08/08 04:35:58;;;;;;;12.82;11.07;;;;;;;26.41;51.88;101210.69;5126875;28;20371;-61
2022/08/08 04:38:23;;;;;;;12.65;11.02;;;;;;;26.45;51.97;101216.41;5127049;28;20516;-61
2022/08/08 04:40:49;;;;;;;13.40;10.97;;;;;;;26.39;52.07;101215.56;5126793;28;20405;-62
2022/08/08 04:43:14;;;;;;;12.33;11.13;;;;;;;26.48;51.63;101226.75;5127041;28;20379;-62
2022/08/08 04:45:40;;;;;;;12.53;11.33;;;;;;;26.52;51.60;101230.56;5123305;28;20393;-62
2022/08/08 04:48:05;;;;;;;13.07;11.45;;;;;;;26.54;51.59;101220.25;5122014;28;20438;-61
2022/08/08 04:50:31;;;;;;;12.87;11.67;;;;;;;26.57;51.76;101221.66;5126542;28;20440;-62
2022/08/08 04:52:57;;;;;;;13.57;12.07;;;;;;;26.59;51.39;101233.88;5126261;28;20371;-62
2022/08/08 04:55:22;;;;;;;12.90;11.53;;;;;;;26.76;51.02;101238.31;5126537;28;20375;-61
2022/08/08 04:57:48;;;;;;;12.82;11.25;;;;;;;26.91;50.93;101249.28;5126606;28;20899;-63
2022/08/08 05:00:14;;;;;;;14.13;11.48;;;;;;;27.16;50.08;101245.81;5127094;28;20424;-61
2022/08/08 05:02:39;;;;;;;17.50;11.65;;;;;;;28.85;46.18;101241.38;5127255;28;20798;-61
2022/08/08 05:05:05;;;;;;;14.30;10.57;;;;;;;32.47;38.21;101236.47;5127117;28;20371;-63
2022/08/08 05:07:30;;;;;;;11.57;10.37;;;;;;;33.82;35.75;101232.38;5126883;28;20454;-62
2022/08/08 05:09:56;;;;;;;11.83;10.13;;;;;;;35.75;32.06;101229.66;5127213;28;20385;-62
2022/08/08 05:12:22;;;;;;;10.95;9.85;;;;;;;36.72;30.88;101230.84;5126749;28;20371;-62
2022/08/08 05:14:47;;;;;;;10.65;8.90;;;;;;;38.34;28.51;101211.66;5126620;28;20556;-62
2022/08/08 05:17:13;;;;;;;10.10;9.10;;;;;;;40.00;26.34;101219.16;5126809;28;20371;-63
2022/08/08 05:19:38;;;;;;;12.90;9.40;;;;;;;41.03;24.70;101211.53;5118598;28;20376;-62
2022/08/08 05:22:05;;;;;;;9.50;8.53;;;;;;;42.06;23.47;101219.34;5112922;28;20376;-63
2022/08/08 05:24:30;;;;;;;15.02;8.35;;;;;;;41.25;24.00;101213.56;5112992;28;20399;-62
2022/08/08 05:26:56;;;;;;;10.50;8.10;;;;;;;38.05;27.99;101234.84;5112860;28;20448;-63
2022/08/08 05:29:22;;;;;;;10.30;8.27;;;;;;;36.70;30.01;101229.59;5112891;28;20889;-62
2022/08/08 05:31:48;;;;;;;9.25;8.30;;;;;;;35.88;31.28;101241.59;5113123;28;20398;-62
2022/08/08 05:36:15;;;;;;;9.43;8.57;;;;;;;35.36;32.07;101248.00;5065922;28;20408;-62
2022/08/08 05:38:51;;;;;;;13.15;8.48;;;;;;;34.65;32.90;101256.50;5067130;28;20881;-62
2022/08/08 05:41:22;;;;;;;11.00;8.60;;;;;;;34.67;33.14;101257.00;5067071;28;20893;-63
2022/08/08 05:43:48;;;;;;;11.30;8.60;;;;;;;34.79;32.93;101259.13;5067347;28;20380;-62
2022/08/08 05:46:14;;;;;;;9.15;8.35;;;;;;;38.81;27.10;101263.00;5066687;28;20384;-62
2022/08/08 05:48:41;;;;;;;9.25;7.72;;;;;;;42.37;22.70;101252.50;5066837;28;20376;-62
2022/08/08 05:51:07;;;;;;;8.55;7.30;;;;;;;44.74;20.09;101258.94;5066910;28;20894;-63
2022/08/08 05:53:33;;;;;;;9.63;6.47;;;;;;;45.81;18.47;101249.25;5066500;28;20394;-62
2022/08/08 05:56:00;;;;;;;8.60;6.67;;;;;;;46.51;17.76;101243.97;5066962;28;20420;-62
2022/08/08 05:58:32;;;;;;;7.78;6.93;;;;;;;47.50;16.72;101246.69;5066582;28;20384;-62
2022/08/08 06:01:01;;;;;;;7.93;6.55;;;;;;;48.63;15.64;101244.44;5066481;28;20384;-62
2022/08/08 06:03:30;;;;;;;7.68;6.88;;;;;;;49.77;14.90;101249.66;5065356;28;20485;-62
2022/08/08 06:06:05;;;;;;;7.10;6.40;;;;;;;51.31;13.69;101249.38;5066272;28;20763;-62
2022/08/08 06:08:50;;;;;;;10.90;7.07;;;;;;;52.98;13.01;101252.16;5066240;28;20869;-62
2022/08/08 06:11:16;;;;;;;8.18;6.38;;;;;;;53.24;12.06;101242.41;5066507;28;20533;-62
2022/08/08 06:13:44;;;;;;;8.00;6.70;;;;;;;54.04;11.45;101249.81;5066457;28;20388;-62
2022/08/08 06:16:13;;;;;;;7.23;5.80;;;;;;;54.38;11.50;101245.34;5066405;28;20412;-62
2022/08/08 06:18:40;;;;;;;6.30;5.80;;;;;;;53.46;11.68;101244.53;5066442;28;20401;-62
2022/08/08 06:21:07;;;;;;;8.63;5.57;;;;;;;53.10;11.97;101243.66;5066323;28;20471;-62
2022/08/08 06:23:33;;;;;;;6.00;5.50;;;;;;;51.78;12.35;101259.53;5064962;28;20384;-62
2022/08/08 06:26:05;;;;;;;8.50;5.50;;;;;;;48.66;14.98;101254.84;5066294;28;20391;-62
2022/08/08 06:28:43;;;;;;;6.22;5.60;;;;;;;47.09;16.11;101259.38;5066182;28;20770;-62
2022/08/08 06:31:11;;;;;;;7.13;5.40;;;;;;;45.45;17.87;101261.19;5066078;28;20388;-62
2022/08/08 06:33:54;;;;;;;5.68;4.80;;;;;;;48.28;15.23;101268.91;5065962;28;20754;-62
2022/08/08 06:36:39;;;;;;;6.97;5.50;;;;;;;50.75;13.57;101261.50;5066059;28;20537;-62
2022/08/08 06:39:08;;;;;;;6.97;5.57;;;;;;;50.34;13.51;101254.28;5065730;28;20381;-61
2022/08/08 06:41:58;;;;;;;10.40;5.55;;;;;;;49.10;14.65;101259.53;5065613;28;20388;-62
2022/08/08 06:44:24;;;;;;;7.03;5.47;;;;;;;51.05;12.89;101263.28;5065731;28;20383;-62
2022/08/08 06:46:53;;;;;;;6.50;5.43;;;;;;;50.85;12.72;101259.69;5056515;28;20381;-61
2022/08/08 06:49:19;;;;;;;6.83;6.13;;;;;;;48.04;14.95;101263.94;5052317;28;20486;-61
2022/08/08 06:51:45;;;;;;;8.37;5.73;;;;;;;49.90;13.42;101270.38;5052231;28;20788;-61
2022/08/08 06:54:12;;;;;;;9.63;5.83;;;;;;;51.30;12.68;101270.38;5052658;28;20423;-62
2022/08/08 06:56:37;;;;;;;8.15;5.30;;;;;;;52.22;12.00;101264.88;5052391;28;20435;-61
2022/08/08 06:59:03;;;;;;;6.70;5.45;;;;;;;51.70;12.01;101269.44;5052401;28;20384;-63
2022/08/08 07:01:42;;;;;;;8.90;5.20;;;;;;;52.09;12.08;101268.41;5052110;28;20529;-62
2022/08/08 07:04:15;;;;;;;6.87;5.23;;;;;;;52.49;11.95;101275.81;5051979;28;20391;-62
2022/08/08 07:06:45;;;;;;;6.78;5.15;;;;;;;51.49;12.45;101260.25;5052005;28;20380;-62
2022/08/08 07:09:19;;;;;;;5.63;5.07;;;;;;;51.88;12.31;101278.28;5052130;28;20391;-62
2022/08/08 07:11:49;;;;;;;6.00;5.45;;;;;;;50.72;13.13;101276.50;5052242;28;20463;-62
2022/08/08 07:14:40;;;;;;;6.57;5.85;;;;;;;51.00;12.94;101269.47;5051705;28;20413;-63
2022/08/08 07:17:15;;;;;;;6.38;5.55;;;;;;;51.72;12.19;101262.13;5051772;28;20539;-62
2022/08/08 07:19:52;;;;;;;6.80;6.18;;;;;;;50.40;13.15;101268.66;5052043;28;20381;-62
2022/08/08 07:23:02;;;;;;;8.23;6.60;;;;;;;48.19;15.21;101264.59;5066170;28;20408;-62
2022/08/08 07:25:33;;;;;;;7.32;6.63;;;;;;;46.91;16.23;101258.66;5066876;28;20453;-61
2022/08/08 07:28:10;;;;;;;8.77;6.75;;;;;;;44.37;18.31;101265.47;5067053;28;20871;-61
2022/08/08 07:30:37;;;;;;;7.50;6.80;;;;;;;42.52;20.43;101273.06;5066701;28;20380;-62
2022/08/08 07:33:03;;;;;;;8.13;7.33;;;;;;;40.47;22.65;101274.66;5066743;28;20853;-62
2022/08/08 07:35:30;;;;;;;8.50;7.65;;;;;;;39.12;24.76;101286.50;5067156;28;20391;-62
2022/08/08 07:37:56;;;;;;;10.93;8.27;;;;;;;38.46;25.34;101282.84;5066541;28;20441;-62
2022/08/08 07:40:26;;;;;;;9.13;8.23;;;;;;;37.56;26.50;101281.72;5066726;28;20402;-62
2022/08/08 07:42:53;;;;;;;9.95;7.85;;;;;;;36.87;27.51;101284.69;5067001;28;20874;-62
2022/08/08 07:45:19;;;;;;;9.75;8.75;;;;;;;36.67;28.00;101285.47;5066375;28;20380;-62
2022/08/08 07:47:45;;;;;;;10.10;8.10;;;;;;;36.53;28.49;101291.22;5066569;28;20449;-62
2022/08/08 07:50:10;;;;;;;10.53;7.63;;;;;;;35.93;29.21;101291.09;5066858;28;20376;-62
2022/08/08 07:52:38;;;;;;;10.07;7.90;;;;;;;35.01;30.33;101305.03;5066403;28;20388;-61
2022/08/08 07:55:08;;;;;;;8.73;7.67;;;;;;;34.37;31.37;101288.94;5066576;28;20380;-61
2022/08/08 07:57:50;;;;;;;11.82;8.10;;;;;;;34.16;32.14;101294.16;5066442;28;20812;-61
2022/08/08 08:00:17;;;;;;;8.87;7.20;;;;;;;34.33;31.97;101291.53;5066366;28;20376;-60
2022/08/08 08:02:47;;;;;;;7.80;6.50;;;;;;;33.71;32.32;101286.81;5064914;28;20467;-60
2022/08/08 08:05:24;;;;;;;10.50;7.25;;;;;;;33.60;33.43;101288.97;5066374;28;20408;-61
2022/08/08 08:08:01;;;;;;;12.23;7.07;;;;;;;33.26;33.43;101287.56;5066326;28;20384;-61
2022/08/08 08:10:28;;;;;;;9.07;6.50;;;;;;;33.35;33.35;101284.88;5065929;28;20376;-62
2022/08/08 08:13:19;;;;;;;12.00;7.05;;;;;;;33.05;33.98;101286.34;5066173;28;20866;-61
2022/08/08 08:16:00;;;;;;;9.73;6.47;;;;;;;32.83;34.61;101287.91;5065728;28;20380;-62
2022/08/08 08:18:47;;;;;;;8.90;6.83;;;;;;;32.67;35.33;101301.16;5066025;28;20406;-61
2022/08/08 08:21:16;;;;;;;10.35;6.45;;;;;;;32.76;34.80;101306.75;5065850;28;20435;-62
2022/08/08 08:23:41;;;;;;;7.77;6.27;;;;;;;32.56;35.32;101289.53;5065613;28;20762;-62
2022/08/08 08:26:07;;;;;;;7.43;6.50;;;;;;;32.51;35.34;101289.63;5065815;28;20384;-62
2022/08/08 08:28:32;;;;;;;6.90;6.05;;;;;;;32.42;34.96;101302.44;5065796;28;20793;-62
2022/08/08 08:31:03;;;;;;;6.80;5.95;;;;;;;32.06;35.49;101303.09;5065840;28;20380;-62
2022/08/08 08:33:29;;;;;;;9.40;5.55;;;;;;;32.08;35.77;101294.56;5056511;28;20389;-63
2022/08/08 08:38:25;;;;;;;7.38;5.28;;;;;;;32.04;35.60;101280.63;5106629;27;20926;-63
2022/08/08 08:40:51;;;;;;;7.03;5.20;;;;;;;32.26;35.37;101288.19;5107631;28;20393;-62
2022/08/08 08:43:18;;;;;;;8.03;5.53;;;;;;;32.28;35.37;101279.66;5107716;28;20372;-63
2022/08/08 08:45:45;;;;;;;6.50;5.32;;;;;;;32.33;35.32;101279.56;5107328;28;20398;-62
2022/08/08 08:48:12;;;;;;;6.32;5.20;;;;;;;32.45;34.80;101277.13;5107308;28;20384;-62
2022/08/08 08:50:40;;;;;;;7.05;5.50;;;;;;;32.38;34.81;101276.72;5107590;28;20980;-61
2022/08/08 08:53:08;;;;;;;6.22;5.53;;;;;;;32.35;35.15;101274.56;5107607;28;20796;-61
2022/08/08 08:55:37;;;;;;;8.07;5.20;;;;;;;32.06;35.68;101266.63;5107242;28;20388;-61
2022/08/08 08:58:03;;;;;;;6.35;5.63;;;;;;;32.34;35.79;101268.28;5107357;28;20492;-61
2022/08/08 09:00:30;;;;;;;6.72;4.70;;;;;;;32.65;35.10;101256.72;5107239;28;20368;-62
2022/08/08 09:02:58;;;;;;;6.30;5.35;;;;;;;32.66;34.31;101254.78;5106095;28;20385;-63
2022/08/08 09:05:27;;;;;;;8.02;5.55;;;;;;;32.55;34.65;101262.38;5107162;28;20376;-61
2022/08/08 09:07:56;;;;;;;8.65;5.53;;;;;;;32.66;35.13;101255.59;5107191;28;20372;-62
2022/08/08 09:10:22;;;;;;;6.50;5.72;;;;;;;32.79;34.85;101256.72;5106806;28;20375;-61
2022/08/08 09:12:49;;;;;;;7.95;4.90;;;;;;;33.04;34.39;101260.81;5106989;28;20385;-61
2022/08/08 09:15:15;;;;;;;8.53;5.17;;;;;;;32.86;33.74;101250.78;5107008;28;20399;-60
2022/08/08 09:17:41;;;;;;;7.57;4.93;;;;;;;32.80;34.36;101244.59;5106912;28;20412;-61
2022/08/08 09:20:08;;;;;;;5.70;5.20;;;;;;;32.84;33.69;101256.56;5106884;28;20380;-61
2022/08/08 09:22:34;;;;;;;6.55;4.65;;;;;;;32.71;33.75;101250.00;5106865;28;20380;-61
2022/08/08 09:25:01;;;;;;;7.40;4.90;;;;;;;32.62;33.64;101243.59;5106800;28;20376;-62
2022/08/08 09:27:26;;;;;;;5.30;4.80;;;;;;;32.77;33.76;101250.69;5106492;28;20830;-61
2022/08/08 09:30:01;;;;;;;5.95;4.75;;;;;;;32.78;33.89;101237.81;5106402;28;20413;-60
2022/08/08 09:32:42;;;;;;;10.05;8.48;;;;;;;32.81;33.74;101239.91;5106597;28;20893;-62
2022/08/08 09:35:14;;;;;;;6.87;4.67;;;;;;;32.72;33.58;101243.41;5106519;28;20384;-61
2022/08/08 09:37:52;;;;;;;5.85;4.93;;;;;;;32.81;33.44;101239.91;5106661;28;20421;-61
2022/08/08 09:40:25;;;;;;;5.25;4.70;;;;;;;32.83;33.31;101234.94;5106541;28;20426;-62
2022/08/08 09:43:11;;;;;;;6.35;4.70;;;;;;;32.69;33.57;101227.53;5106531;28;20377;-61
2022/08/08 09:45:45;;;;;;;6.95;4.55;;;;;;;32.75;33.27;101237.28;5106451;28;20429;-62
2022/08/08 09:48:15;;;;;;;6.25;4.53;;;;;;;32.86;32.92;101229.66;5101562;28;20373;-62
2022/08/08 09:50:40;;;;;;;7.60;4.53;;;;;;;32.86;33.34;101228.81;5091276;28;20389;-61
2022/08/08 09:53:10;;;;;;;8.70;4.60;;;;;;;32.82;32.84;101230.56;5092436;28;20377;-61
2022/08/08 09:55:36;;;;;;;9.48;4.50;;;;;;;32.79;33.32;101223.75;5092493;28;20876;-62
2022/08/08 09:58:06;;;;;;;6.97;4.60;;;;;;;32.72;33.71;101217.88;5092280;28;20462;-62
2022/08/08 10:00:36;;;;;;;9.77;4.57;;;;;;;32.81;33.36;101217.94;5092939;28;20376;-61
2022/08/08 10:03:03;;;;;;;5.30;4.40;;;;;;;33.04;32.70;101214.13;5092467;28;20408;-61
2022/08/08 10:05:34;;;;;;;4.88;4.30;;;;;;;33.06;32.53;101205.56;5092473;28;20430;-62
2022/08/08 10:08:00;;;;;;;6.18;4.35;;;;;;;33.07;32.68;101220.94;5092296;28;20392;-61
2022/08/08 10:10:37;;;;;;;5.07;4.47;;;;;;;32.91;32.59;101212.22;5092235;28;20373;-62
2022/08/08 10:13:24;;;;;;;5.20;4.70;;;;;;;33.15;32.67;101200.97;5092231;28;20484;-61
2022/08/08 10:15:52;;;;;;;5.28;4.57;;;;;;;33.20;32.57;101200.88;5092138;28;20906;-61
2022/08/08 10:18:27;;;;;;;6.72;4.20;;;;;;;33.17;32.23;101204.25;5092048;28;20478;-61
2022/08/08 10:21:00;;;;;;;8.25;4.30;;;;;;;33.12;32.07;101190.59;5092138;28;20464;-62
2022/08/08 10:23:46;;;;;;;8.18;4.18;;;;;;;33.13;31.95;101186.75;5091808;28;20421;-62
2022/08/08 10:26:15;;;;;;;4.75;3.90;;;;;;;33.11;31.80;101191.72;5092075;28;20472;-63
2022/08/08 10:28:53;;;;;;;6.85;4.50;;;;;;;33.09;31.63;101182.97;5091964;28;20458;-62
2022/08/08 10:34:12;;;;;;;8.05;4.10;;;;;;;33.46;31.46;101179.06;5091740;28;20385;-62
2022/08/08 10:36:40;;;;;;;4.53;4.03;;;;;;;33.39;31.34;101180.66;5091422;28;20478;-62
2022/08/08 10:39:08;;;;;;;5.57;4.00;;;;;;;33.26;31.42;101177.66;5091819;28;20893;-62
2022/08/08 10:41:37;;;;;;;4.40;4.00;;;;;;;33.14;30.90;101169.97;5091441;28;20386;-62
2022/08/08 10:44:05;;;;;;;5.82;3.97;;;;;;;33.22;30.71;101167.59;5091482;28;20431;-62
2022/08/08 10:46:30;;;;;;;5.03;4.00;;;;;;;33.30;30.35;101169.59;5091549;28;20373;-62
2022/08/08 10:48:57;;;;;;;6.77;4.03;;;;;;;33.27;30.56;101160.03;5091401;28;20385;-63
2022/08/08 10:51:34;;;;;;;8.90;3.88;;;;;;;33.18;30.58;101158.34;5091614;28;20898;-63
2022/08/08 10:54:00;;;;;;;6.57;4.23;;;;;;;33.26;30.47;101158.41;5091616;28;20942;-62
2022/08/08 10:56:32;;;;;;;5.55;4.00;;;;;;;33.13;30.43;101154.63;5091529;28;20425;-64
2022/08/08 10:59:03;;;;;;;6.32;4.13;;;;;;;33.11;30.31;101148.56;5091501;28;20380;-63
2022/08/08 11:01:30;;;;;;;4.85;3.92;;;;;;;33.21;30.45;101149.50;5090193;28;20906;-62
2022/08/08 11:03:58;;;;;;;5.38;3.97;;;;;;;33.35;30.59;101142.00;5091654;28;20902;-63
2022/08/08 11:06:33;;;;;;;4.50;4.10;;;;;;;33.44;30.67;101140.09;5091326;28;20384;-63
2022/08/08 11:09:10;;;;;;;5.03;3.95;;;;;;;33.45;30.28;101144.47;5091067;28;20464;-62
2022/08/08 11:11:41;;;;;;;4.70;3.57;;;;;;;33.52;30.36;101141.28;5090891;28;20381;-63
2022/08/08 11:14:08;;;;;;;5.05;3.65;;;;;;;33.43;30.19;101130.22;5091197;28;20472;-62
2022/08/08 11:16:35;;;;;;;7.03;3.88;;;;;;;33.43;29.62;101126.66;5091262;28;20413;-62
2022/08/08 11:19:02;;;;;;;6.85;3.85;;;;;;;33.39;29.34;101131.97;5091050;28;20376;-62
2022/08/08 11:21:33;;;;;;;7.55;5.25;;;;;;;33.34;29.46;101130.16;5091007;28;20382;-63
2022/08/08 11:24:07;;;;;;;10.23;3.40;;;;;;;33.47;29.13;101127.66;5091067;28;20393;-62
2022/08/08 11:26:35;;;;;;;4.57;3.38;;;;;;;33.43;29.36;101134.91;5090945;28;20374;-62
2022/08/08 11:29:02;;;;;;;6.53;3.65;;;;;;;33.39;28.61;101131.19;5090892;28;20418;-63
2022/08/08 11:31:35;;;;;;;6.80;3.88;;;;;;;33.50;28.92;101127.03;5089712;28;20389;-62
2022/08/08 11:34:03;;;;;;;5.93;3.80;;;;;;;33.51;28.74;101125.88;5090573;28;20377;-62
2022/08/08 11:36:31;;;;;;;5.80;3.70;;;;;;;33.46;28.66;101110.38;5090433;28;20428;-63
2022/08/08 11:38:56;;;;;;;6.20;3.88;;;;;;;33.63;29.00;101119.81;5090364;28;20929;-62
2022/08/08 11:41:27;;;;;;;8.23;4.00;;;;;;;33.74;29.48;101112.94;5090676;28;20377;-63
2022/08/08 11:43:56;;;;;;;8.32;3.97;;;;;;;33.83;29.51;101099.22;5090346;28;20767;-64
2022/08/08 11:46:26;;;;;;;4.43;3.50;;;;;;;33.86;28.73;101101.34;5090306;28;20469;-62
2022/08/08 11:48:52;;;;;;;4.10;3.55;;;;;;;33.79;28.57;101101.78;5090407;28;20385;-63
2022/08/08 11:51:22;;;;;;;7.40;3.50;;;;;;;33.80;28.13;101092.44;5090417;28;20370;-63
2022/08/08 11:53:49;;;;;;;4.50;3.17;;;;;;;33.88;27.84;101094.38;5090195;28;20382;-62
2022/08/08 11:56:22;;;;;;;5.35;3.50;;;;;;;34.01;27.66;101092.63;5090023;28;20764;-62
2022/08/08 11:58:48;;;;;;;7.82;4.00;;;;;;;34.08;27.20;101101.22;5074351;28;20492;-62
2022/08/08 12:01:14;;;;;;;6.07;4.13;;;;;;;34.20;27.39;101095.13;5063022;28;20389;-62
2022/08/08 12:03:48;;;;;;;5.13;3.47;;;;;;;34.22;26.88;101101.13;5054717;28;20413;-62